• Join FlightAware (Why Join?)
  • Login
  • US Flag 
 
12:43AM EST


 

Airport Tracker/Info


-or-


 

Live Flight TrackerFlight Track Log ✈ N911TW ✈ 21-Jun-2013 ✈ KLWB - KYIP

Flight Track Log - Related Links

Times and Time Zones

All times are in EDT time to prevent confusion due to time zone crossing. See the N911TW flight status page for this flight to view local times or setup timezone preferences in your user account.

Time Position Orientation Groundspeed Altitude Reporting Facility
EDT Latitude Longitude Course Direction KTS MPH feet Rate Location/Type
02:31PM 38.0625 -80.5739 327° Northwest  Level FlightAware Approximate
02:35PM 37.8642 -80.4711 327° Northwest 134 154 3,600  Level Indianapolis Center
02:36PM 37.8894 -80.4967 321° Northwest 161 185 3,800 300 Climbing Washington Center
02:37PM 37.9217 -80.5225 328° Northwest 156 180 4,200 420 Climbing Washington Center
02:38PM 37.9561 -80.5511 327° Northwest 151 174 4,700 480 Climbing Washington Center
02:39PM 37.9922 -80.5797 328° Northwest 151 174 5,200 360 Climbing Washington Center
02:40PM 38.0267 -80.6058 329° Northwest 151 174 5,500 240 Climbing Washington Center
02:41PM 38.0589 -80.6317 328° Northwest 151 174 5,800 240 Climbing Washington Center
02:42PM 38.0911 -80.6628 323° Northwest 151 174 6,100 180 Climbing Washington Center
02:43PM 38.1058 -80.6669 347° North 143 165 6,100 240 Level Indianapolis Center
02:44PM 38.1457 -80.6889 337° Northwest  Level FlightAware Approximate
02:46PM 38.2142 -80.7569 326° Northwest 148 170 7,000  Level Indianapolis Center
02:47PM 38.2517 -80.7872 328° Northwest 156 180 7,000  Level Indianapolis Center
02:48PM 38.2881 -80.8172 327° Northwest 157 181 7,000  Level Indianapolis Center
02:49PM 38.3244 -80.8483 326° Northwest 158 182 7,000  Level Indianapolis Center
02:50PM 38.3678 -80.8836 327° Northwest 152 175 7,000 180 Level Indianapolis Center
02:51PM 38.4177 -80.8688 326° Northwest  Level FlightAware Approximate
02:51PM 38.4039 -80.9139 327° Northwest 154 177 7,400  Level Indianapolis Center
02:52PM 38.4411 -80.9444 327° Northwest 158 182 7,700 240 Climbing Indianapolis Center
02:53PM 38.4789 -80.9733 329° Northwest 159 183 8,000 120 Climbing Indianapolis Center
02:54PM 38.5203 -81.0003 333° Northwest 166 191 8,000  Level Indianapolis Center
02:55PM 38.5575 -81.0325 326° Northwest 163 188 8,000  Level Indianapolis Center
02:56PM 38.6050 -81.0697 329° Northwest 169 194 8,000  Level Indianapolis Center
02:57PM 38.6414 -81.1022 325° Northwest 161 185 8,000  Level Indianapolis Center
02:58PM 38.6781 -81.1372 323° Northwest 164 189 8,000  Level Indianapolis Center
02:59PM 38.7136 -81.1725 322° Northwest 162 186 8,000  Level Indianapolis Center
03:00PM 38.7506 -81.2053 325° Northwest 162 186 8,000  Level Indianapolis Center
03:01PM 38.7894 -81.2364 328° Northwest 165 190 8,000  Level Indianapolis Center
03:02PM 38.8344 -81.2742 327° Northwest 163 188 8,000  Level Indianapolis Center
03:03PM 38.8719 -81.3056 327° Northwest 162 186 8,000  Level Indianapolis Center
03:04PM 38.9094 -81.3378 326° Northwest 162 186 8,000  Level Indianapolis Center
03:05PM 38.9467 -81.3694 327° Northwest 162 186 8,000  Level Indianapolis Center
03:06PM 38.9844 -81.3997 328° Northwest 160 184 8,000  Level Indianapolis Center
03:07PM 39.0297 -81.4383 326° Northwest 163 188 8,000  Level Indianapolis Center
03:08PM 39.0664 -81.4703 326° Northwest 161 185 8,000  Level Indianapolis Center
03:09PM 39.1042 -81.5006 328° Northwest 159 183 8,000  Level Indianapolis Center
03:10PM 39.1403 -81.5328 325° Northwest 160 184 8,000  Level Indianapolis Center
03:11PM 39.1772 -81.5631 328° Northwest 157 181 8,000  Level Indianapolis Center
03:13PM 39.2139 -81.5944 326° Northwest 158 182 8,000  Level Indianapolis Center
03:14PM 39.2567 -81.6303 327° Northwest 154 177 8,000  Level Indianapolis Center
03:15PM 39.2925 -81.6614 326° Northwest 154 177 8,000  Level Indianapolis Center
03:16PM 39.3283 -81.6914 327° Northwest 154 177 8,000  Level Indianapolis Center
03:17PM 39.3642 -81.7219 327° Northwest 154 177 8,000  Level Indianapolis Center
03:18PM 39.4011 -81.7536 326° Northwest 157 181 8,000  Level Indianapolis Center
03:19PM 39.4378 -81.7844 327° Northwest 158 182 8,000  Level Indianapolis Center
03:20PM 39.4794 -81.8219 325° Northwest 153 176 8,000  Level Indianapolis Center
03:21PM 39.5161 -81.8522 328° Northwest 155 178 8,000  Level Indianapolis Center
03:22PM 39.5511 -81.8819 327° Northwest 153 176 8,000  Level Indianapolis Center
03:23PM 39.5864 -81.9122 327° Northwest 151 174 8,000  Level Indianapolis Center
03:24PM 39.6211 -81.9450 324° Northwest 153 176 8,000  Level Indianapolis Center
03:25PM 39.6575 -81.9767 326° Northwest 155 178 8,000  Level Indianapolis Center
03:25PM 39.6839 -81.9994 326° Northwest 157 181 8,000  Level Indianapolis Center
03:26PM 39.7008 -82.0119 330° Northwest 154 177 8,000  Level Indianapolis Center
03:27PM 39.7378 -82.0431 327° Northwest 157 181 8,000  Level Indianapolis Center
03:28PM 39.7694 -82.0731 324° Northwest 155 178 8,000  Level Indianapolis Center
03:29PM 39.8089 -82.1056 328° Northwest 153 176 8,000  Level Indianapolis Center
03:30PM 39.8436 -82.1353 327° Northwest 153 176 8,000  Level Indianapolis Center
03:31PM 39.8828 -82.1714 325° Northwest 156 180 8,000  Level Indianapolis Center
03:32PM 39.9144 -82.1964 329° Northwest 156 180 8,000  Level Indianapolis Center
03:33PM 39.9581 -82.2364 325° Northwest 156 180 8,000  Level Indianapolis Center
03:34PM 39.9939 -82.2672 327° Northwest 158 182 8,000  Level Indianapolis Center
03:35PM 40.0275 -82.2981 325° Northwest 161 185 8,000  Level Indianapolis Center
03:36PM 40.0694 -82.3322 328° Northwest 162 186 8,000  Level Indianapolis Center
03:37PM 40.1031 -82.3631 325° Northwest 163 188 8,000  Level Indianapolis Center
03:38PM 40.1525 -82.4050 327° Northwest 161 185 8,000  Level Indianapolis Center
03:39PM 40.1900 -82.4378 326° Northwest 162 186 8,000  Level Indianapolis Center
03:40PM 40.2269 -82.4714 325° Northwest 162 186 8,000  Level Indianapolis Center
03:41PM 40.2675 -82.5064 327° Northwest 163 188 8,000  Level Indianapolis Center
03:42PM 40.3081 -82.5394 328° Northwest 167 192 8,000  Level Indianapolis Center
03:44PM 40.3492 -82.5678 332° Northwest 166 191 8,000  Level Indianapolis Center
03:45PM 40.3875 -82.5986 329° Northwest 163 188 8,000  Level Indianapolis Center
03:46PM 40.4258 -82.6325 326° Northwest 163 188 8,000  Level Indianapolis Center
03:47PM 40.4628 -82.6681 324° Northwest 164 189 8,000  Level Indianapolis Center
03:48PM 40.5006 -82.7008 327° Northwest 161 185 8,000  Level Indianapolis Center
03:49PM 40.5453 -82.7400 326° Northwest 164 189 8,000  Level Indianapolis Center
03:50PM 40.5828 -82.7750 325° Northwest 164 189 8,000  Level Indianapolis Center
03:51PM 40.6208 -82.8089 326° Northwest 164 189 8,000  Level Indianapolis Center
03:52PM 40.6583 -82.8442 324° Northwest 164 189 8,000  Level Indianapolis Center
03:53PM 40.6964 -82.8764 327° Northwest 162 186 8,000  Level Indianapolis Center
03:54PM 40.7342 -82.9125 324° Northwest 165 190 8,000  Level Indianapolis Center
03:55PM 40.7725 -82.9472 326° Northwest 166 191 8,000 -60 Level Indianapolis Center
03:56PM 40.8178 -82.9883 326° Northwest 166 191 7,900 -120 Descending Indianapolis Center